首页
METAR-TAF:

METAR-TAF

机场 :

阿拉木圖, 哈萨克斯坦

阿拉木图国际机场

纬度: 43-14N, 经度: 076-56E, 海拔: 847米

当前天气观测

该预报发布于23分钟前的22:00 UTC
风速4节,风向西北,在西北转西北之间变化
温度 12°C
湿度 88%
气压 1025 hPa
能见度10公里或以上
多云层高于5000英尺, 积雨云.
阴天层高于10000英尺

METAR: UAAA 252200Z 31002MPS 270V330 9999 BKN050CB OVC100 12/10 Q1025 R88/2/0150 NOSIG

时间: 04:23 (22:23 UTC)

预报

该预报发布于5小时和23分钟前的17:00 UTC
预报有效从25日的 18点(UTC)到 26日的 18点(UTC)
风速10节,风向
能見度: 3000
多云层高于1000英尺
阴天层高于3000英尺, 积雨云.
小阵雨, 轻雾
短暂存在
从 25日的 18点(UTC)到 25日的 22点(UTC)
风速16节,风向西
能見度: 1500
多云层高于300英尺
阴天层高于1000英尺, 积雨云.
阵雨
几率 40% :
短暂存在
从 25日的 18点(UTC)到 25日的 22点(UTC)
雷暴
短暂存在
从 25日的 22点(UTC)到 26日的 03点(UTC)
能見度: 0500
多云层高于200英尺
阴天层高于1000英尺
雨, 雾
成为
从 26日的 03点(UTC)到 26日的 04点(UTC)
能見度: 5000
短暂存在
从 26日的 12点(UTC)到 26日的 18点(UTC)
能見度: 2000
散云层高于500英尺
多云层高于1000英尺
轻雾, 烟

TAF: UAAA 251700Z 2518/2618 35005MPS 3000 -SHRA BR BKN010 OVC030CB TX14/2609Z TN08/2601Z TEMPO 2518/2522 26008MPS 1500 SHRA BKN003 OVC010CB PROB40 TEMPO 2518/2522 TS TEMPO 2522/2603 0500 RA FG BKN002 OVC010 BECMG 2603/2604 5000 TEMPO 2612/2618 2000 BR FU SCT005 BKN010

超过4000个机场的气象观测和天气预报(METAR&TAF报告)。

可查询的气象台以黄色和红色小点在地图上表示。

将鼠标移到小点上方,可查看气象台名称。

然后点击查看天气观测和预报。

如需切换地图:点击带黑十字的绿色按钮放大地图;点击带横线的绿色按钮缩小地图;或者点击绿色箭头查看邻近地区的地图。


METAR-TAF: